Time;durP1;ratioP1;P1;durP2;ratioP2;P2;SDS_P1;SDS_P2;PMS_P1;PMS_P2;Temp;Humidity;BMP_temperature;BMP_pressure;BME280_temperature;BME280_humidity;BME280_pressure;Samples;Min_cycle;Max_cycle;Signal;HPM_P1;HPM_P2
2022/12/14 00:00:44;;;;;;;88.55;48.25;;;;;;;-6.54;82.35;99837.97;2699404;87;21430;-85
2022/12/14 00:04:44;;;;;;;99.67;52.35;;;;;;;-6.39;81.74;99832.94;2697040;85;21947;-85
2022/12/14 00:08:48;;;;;;;88.05;46.53;;;;;;;-6.36;80.78;99832.91;2707299;86;21110;-85
2022/12/14 00:12:50;;;;;;;71.92;42.95;;;;;;;-6.40;80.58;99827.81;2694759;87;21039;-85
2022/12/14 00:16:51;;;;;;;77.08;40.17;;;;;;;-6.53;80.78;99828.03;2748117;84;21625;-85
2022/12/14 00:20:52;;;;;;;56.55;35.73;;;;;;;-6.60;80.38;99819.52;2773892;84;20991;-84
2022/12/14 00:24:53;;;;;;;65.80;28.17;;;;;;;-6.74;80.87;99815.91;2807407;82;21471;-84
2022/12/14 00:28:55;;;;;;;72.95;37.38;;;;;;;-6.87;81.56;99810.56;2792130;84;21035;-84
2022/12/14 00:32:57;;;;;;;73.60;39.03;;;;;;;-6.83;81.72;99803.58;2780377;83;21021;-84
2022/12/14 00:36:58;;;;;;;76.72;40.43;;;;;;;-6.81;81.64;99803.11;2794434;83;21624;-85
2022/12/14 00:40:59;;;;;;;77.57;36.00;;;;;;;-6.71;81.29;99793.44;2791974;83;21094;-84
2022/12/14 00:45:04;;;;;;;86.05;46.35;;;;;;;-6.70;80.63;99801.19;2793791;83;21554;-84
2022/12/14 00:49:05;;;;;;;73.62;41.28;;;;;;;-6.77;80.48;99799.16;2785504;84;21050;-84
2022/12/14 00:53:06;;;;;;;92.08;44.38;;;;;;;-6.93;80.83;99801.59;2802446;84;21054;-84
2022/12/14 00:57:09;;;;;;;70.85;41.68;;;;;;;-7.07;81.24;99791.08;2805025;84;21582;-84
2022/12/14 01:19:27;;;;;;;74.22;45.38;;;;;;;-6.33;78.64;99784.95;2908643;81;22866;-91
2022/12/14 01:23:29;;;;;;;78.40;40.12;;;;;;;-6.47;78.10;99781.34;2855526;82;21007;-90
2022/12/14 01:27:30;;;;;;;74.62;42.75;;;;;;;-6.57;78.39;99778.52;2861764;83;20983;-91
2022/12/14 01:31:35;;;;;;;84.80;42.15;;;;;;;-6.64;78.80;99776.48;2828104;83;21022;-91
2022/12/14 01:35:36;;;;;;;71.12;39.78;;;;;;;-6.71;79.34;99771.03;2858770;83;21047;-93
2022/12/14 01:39:37;;;;;;;71.67;39.05;;;;;;;-6.76;79.56;99763.80;2852674;83;21576;-90
2022/12/14 01:43:52;;;;;;;88.87;39.95;;;;;;;-6.81;79.84;99757.42;2769064;83;21031;-92
2022/12/14 01:47:58;;;;;;;70.97;41.75;;;;;;;-6.83;80.12;99767.37;2824725;83;21071;-89
2022/12/14 01:52:21;;;;;;;87.88;42.65;;;;;;;-6.82;80.47;99764.77;2786716;84;21040;-90
2022/12/14 01:56:23;;;;;;;78.47;41.33;;;;;;;-6.92;80.79;99754.16;2709884;85;21082;-91
2022/12/14 02:00:24;;;;;;;72.42;41.20;;;;;;;-7.07;81.13;99744.53;2756063;85;21765;-91
2022/12/14 02:04:26;;;;;;;77.35;43.40;;;;;;;-7.11;81.47;99744.61;2675878;85;21055;-91
2022/12/14 02:08:28;;;;;;;80.60;44.03;;;;;;;-7.15;81.75;99737.34;2757974;84;21551;-91
2022/12/14 02:12:44;;;;;;;80.10;41.28;;;;;;;-7.13;81.61;99741.20;2803462;83;21067;-91
2022/12/14 02:16:51;;;;;;;81.17;43.40;;;;;;;-7.11;81.69;99726.05;2796539;84;21091;-90
2022/12/14 02:21:20;;;;;;;77.30;41.15;;;;;;;-7.19;82.54;99733.11;2797482;84;21072;-91
2022/12/14 02:26:08;;;;;;;91.47;41.98;;;;;;;-7.17;82.26;99732.64;2795532;84;21074;-90
2022/12/14 02:30:20;;;;;;;82.33;45.48;;;;;;;-7.10;81.92;99725.63;2803305;84;21048;-91
2022/12/14 02:34:32;;;;;;;44.30;25.27;;;;;;;-7.20;82.25;99722.36;2798270;84;21057;-90
2022/12/14 02:38:54;;;;;;;77.00;37.50;;;;;;;-7.70;84.72;99719.30;2761637;85;21111;-91
2022/12/14 02:43:42;;;;;;;72.00;36.20;;;;;;;-7.58;84.54;99718.25;2743964;85;21044;-90
2022/12/14 02:48:04;;;;;;;62.25;33.23;;;;;;;-7.64;85.10;99716.64;2723748;85;21586;-90
2022/12/14 02:52:39;;;;;;;59.83;37.38;;;;;;;-7.70;85.18;99718.01;2763238;85;21064;-90
2022/12/14 02:56:46;;;;;;;58.78;31.27;;;;;;;-7.57;85.11;99713.95;2761371;85;21206;-90
2022/12/14 03:00:48;;;;;;;63.83;37.95;;;;;;;-7.46;85.39;99715.92;2757852;85;21091;-90
2022/12/14 03:04:50;;;;;;;60.60;32.50;;;;;;;-7.30;84.77;99712.63;2750042;85;21132;-89
2022/12/14 03:09:12;;;;;;;64.47;35.00;;;;;;;-7.27;84.44;99701.36;2767831;85;22017;-90
2022/12/14 03:13:42;;;;;;;73.37;35.92;;;;;;;-7.16;83.84;99711.08;2765066;85;21659;-90
2022/12/14 03:17:47;;;;;;;69.55;40.95;;;;;;;-7.12;83.49;99704.13;2763588;84;21399;-91
2022/12/14 03:21:55;;;;;;;71.47;39.38;;;;;;;-7.07;83.01;99705.75;2758984;86;21059;-91
2022/12/14 03:26:17;;;;;;;69.17;37.20;;;;;;;-7.04;82.87;99704.40;2752770;86;21123;-92
2022/12/14 03:30:19;;;;;;;78.05;39.40;;;;;;;-6.98;82.70;99697.40;2736907;85;21063;-92
2022/12/14 03:34:43;;;;;;;76.82;38.60;;;;;;;-6.96;82.45;99690.46;2763153;85;21056;-93
2022/12/14 03:38:49;;;;;;;61.63;36.53;;;;;;;-7.03;82.83;99691.88;2760240;85;21072;-92
2022/12/14 03:42:58;;;;;;;61.77;30.68;;;;;;;-6.98;82.92;99693.52;2759554;85;21069;-92
2022/12/14 03:47:14;;;;;;;57.35;31.40;;;;;;;-6.94;82.76;99693.86;2767092;84;21607;-92
2022/12/14 03:51:37;;;;;;;66.50;32.90;;;;;;;-6.93;82.85;99692.98;2760907;84;21079;-91
2022/12/14 03:55:50;;;;;;;60.12;30.32;;;;;;;-6.83;82.70;99682.88;2762355;85;21584;-92
2022/12/14 04:00:08;;;;;;;71.97;34.18;;;;;;;-6.78;82.04;99684.92;2761422;84;21128;-90
2022/12/14 04:04:18;;;;;;;52.98;28.73;;;;;;;-6.69;81.64;99666.20;2765087;84;21664;-93
2022/12/14 04:08:33;;;;;;;60.60;31.00;;;;;;;-6.63;81.00;99664.80;2754370;84;21027;-94
2022/12/14 04:21:43;;;;;;;61.23;30.97;;;;;;;-6.60;81.34;99649.21;2751098;85;21559;-92
2022/12/14 04:26:04;;;;;;;42.25;21.00;;;;;;;-6.58;81.28;99644.84;2766438;84;21106;-93
2022/12/14 04:30:10;;;;;;;30.40;17.90;;;;;;;-6.61;82.23;99649.64;2764228;85;21031;-93
2022/12/14 04:34:15;;;;;;;39.97;25.63;;;;;;;-6.67;82.84;99641.18;2749571;85;21105;-93
2022/12/14 04:38:21;;;;;;;41.08;22.82;;;;;;;-6.66;83.35;99644.17;2742392;85;21035;-92
2022/12/14 04:42:34;;;;;;;38.63;22.02;;;;;;;-6.66;83.81;99641.59;2726827;85;21109;-93
2022/12/14 04:46:38;;;;;;;39.90;25.25;;;;;;;-6.62;83.77;99643.22;2760397;84;21070;-94
2022/12/14 04:50:44;;;;;;;43.35;23.20;;;;;;;-6.57;83.35;99634.91;2759935;84;21054;-94
2022/12/14 04:54:54;;;;;;;50.95;28.25;;;;;;;-6.52;82.96;99633.06;2785707;84;21027;-93
2022/12/14 04:58:55;;;;;;;45.58;23.25;;;;;;;-6.48;82.68;99623.08;2735637;86;21404;-93
2022/12/14 05:03:23;;;;;;;49.48;23.57;;;;;;;-6.45;82.65;99613.08;2749159;84;21365;-93
2022/12/14 05:12:15;;;;;;;50.60;27.02;;;;;;;-6.39;83.14;99625.03;2679035;87;21680;-94
2022/12/14 05:16:25;;;;;;;49.60;25.08;;;;;;;-6.41;83.14;99622.92;2694618;86;73797;-59
2022/12/14 05:20:27;;;;;;;43.45;26.37;;;;;;;-6.47;84.16;99623.48;2699070;87;21089;-61
2022/12/14 05:24:29;;;;;;;49.45;23.83;;;;;;;-6.51;84.15;99617.94;2756760;86;21352;-65
2022/12/14 05:28:31;;;;;;;55.95;29.72;;;;;;;-6.49;84.29;99625.22;2775314;86;20967;-64
2022/12/14 05:32:37;;;;;;;62.30;30.32;;;;;;;-6.44;83.88;99621.25;2777559;86;21057;-63
2022/12/14 05:36:39;;;;;;;58.50;29.15;;;;;;;-6.37;83.32;99614.20;2777714;85;20927;-61
2022/12/14 05:40:41;;;;;;;36.55;16.62;;;;;;;-6.38;83.40;99598.27;2775318;85;21017;-60
2022/12/14 05:44:42;;;;;;;60.03;28.27;;;;;;;-6.52;84.34;99596.83;2763323;86;20988;-64
2022/12/14 05:48:44;;;;;;;67.40;32.20;;;;;;;-6.39;83.96;99587.50;2764122;86;21247;-60
2022/12/14 05:52:45;;;;;;;64.55;33.83;;;;;;;-6.36;83.59;99572.77;2750330;86;21095;-59
2022/12/14 05:56:47;;;;;;;101.72;52.17;;;;;;;-6.30;83.30;99579.50;2731037;86;21053;-62
2022/12/14 06:01:10;;;;;;;97.90;53.55;;;;;;;-6.27;82.77;99576.88;2737559;86;20957;-64
2022/12/14 06:05:12;;;;;;;106.58;55.10;;;;;;;-6.32;82.41;99577.40;2750996;86;21010;-63
2022/12/14 06:09:15;;;;;;;185.00;103.27;;;;;;;-6.31;82.34;99576.52;2777879;86;21002;-61
2022/12/14 06:13:19;;;;;;;131.90;76.15;;;;;;;-6.31;82.15;99579.10;2755755;86;21056;-59
2022/12/14 06:17:20;;;;;;;229.23;121.77;;;;;;;-6.35;81.93;99578.77;2772418;84;21013;-60
2022/12/14 06:21:26;;;;;;;107.22;62.83;;;;;;;-6.38;81.82;99582.73;2809082;84;21056;-61
2022/12/14 06:25:28;;;;;;;81.97;50.52;;;;;;;-6.38;81.70;99578.85;2813847;84;21009;-60
2022/12/14 06:29:29;;;;;;;59.85;38.92;;;;;;;-6.39;81.17;99569.38;2792153;84;21036;-63
2022/12/14 06:33:35;;;;;;;76.40;44.27;;;;;;;-6.48;81.17;99566.56;2782918;84;20972;-61
2022/12/14 06:37:36;;;;;;;72.82;40.20;;;;;;;-6.65;81.50;99565.67;2804964;84;21089;-61
2022/12/14 06:41:39;;;;;;;74.35;41.83;;;;;;;-6.63;81.76;99570.37;2812766;84;21015;-60
2022/12/14 06:45:40;;;;;;;81.80;39.05;;;;;;;-6.68;81.93;99566.58;2780926;84;20984;-58
2022/12/14 06:49:42;;;;;;;69.75;40.75;;;;;;;-6.67;82.03;99570.87;2794204;84;20997;-60
2022/12/14 06:53:54;;;;;;;85.77;47.25;;;;;;;-6.62;82.05;99575.95;2787574;84;20983;-59
2022/12/14 06:57:56;;;;;;;74.40;44.67;;;;;;;-6.63;82.15;99566.03;2800794;84;21604;-61
2022/12/14 07:02:08;;;;;;;81.75;50.28;;;;;;;-6.64;82.20;99572.55;2780824;84;20921;-59
2022/12/14 07:06:09;;;;;;;109.17;58.98;;;;;;;-6.64;82.14;99560.45;2813912;84;20996;-63
2022/12/14 07:10:11;;;;;;;93.95;53.15;;;;;;;-6.69;82.24;99557.55;2813826;84;20986;-60
2022/12/14 07:14:15;;;;;;;98.62;52.35;;;;;;;-6.67;82.25;99554.05;2814294;84;21008;-61
2022/12/14 07:18:17;;;;;;;104.00;52.20;;;;;;;-6.64;82.09;99559.16;2788934;84;21056;-62
2022/12/14 07:22:19;;;;;;;104.20;55.78;;;;;;;-6.64;81.84;99557.02;2782394;85;20981;-59
2022/12/14 07:26:26;;;;;;;97.67;56.40;;;;;;;-6.62;81.81;99552.66;2778449;85;21001;-61
2022/12/14 07:30:27;;;;;;;96.65;52.17;;;;;;;-6.62;81.79;99549.61;2767658;85;20977;-59
2022/12/14 07:34:29;;;;;;;110.95;56.20;;;;;;;-6.65;81.68;99544.98;2775433;85;20994;-62
2022/12/14 07:38:32;;;;;;;104.10;59.95;;;;;;;-6.67;81.75;99541.12;2743192;85;21033;-60
2022/12/14 07:42:33;;;;;;;126.27;68.62;;;;;;;-6.70;81.73;99541.19;2737136;86;20966;-62
2022/12/14 07:46:37;;;;;;;119.10;71.55;;;;;;;-6.69;81.69;99538.14;2736752;85;20985;-60
2022/12/14 07:50:39;;;;;;;116.90;63.83;;;;;;;-6.71;81.83;99537.33;2742185;82;73846;-95
2022/12/14 07:54:41;;;;;;;121.25;65.05;;;;;;;-6.75;81.93;99536.12;2768054;84;21126;-93
2022/12/14 07:58:43;;;;;;;120.60;64.10;;;;;;;-6.86;81.75;99535.53;2669647;87;21058;-93
2022/12/14 08:02:45;;;;;;;130.15;70.75;;;;;;;-6.88;81.86;99526.92;2689337;87;21450;-94
2022/12/14 08:06:47;;;;;;;112.60;62.27;;;;;;;-6.85;81.94;99528.17;2681882;87;21629;-92
2022/12/14 08:10:49;;;;;;;127.82;62.83;;;;;;;-6.89;81.90;99527.81;2717545;86;21063;-94
2022/12/14 08:14:50;;;;;;;118.60;65.78;;;;;;;-6.86;82.20;99525.18;2644924;87;21070;-92
2022/12/14 08:18:54;;;;;;;117.75;68.87;;;;;;;-6.82;82.48;99528.52;2686847;87;21363;-91
2022/12/14 08:22:56;;;;;;;116.67;67.58;;;;;;;-6.74;82.86;99527.47;2707460;86;21058;-93
2022/12/14 08:26:57;;;;;;;124.62;66.55;;;;;;;-6.75;82.57;99524.48;2680486;87;21051;-92
2022/12/14 08:31:06;;;;;;;140.20;70.28;;;;;;;-6.63;82.55;99525.09;2668380;87;21135;-92
2022/12/14 08:35:08;;;;;;;122.40;67.65;;;;;;;-6.59;82.35;99518.95;2709362;86;21506;-93
2022/12/14 08:39:10;;;;;;;144.60;77.05;;;;;;;-6.53;82.69;99516.67;2643180;89;21050;-92
2022/12/14 08:43:11;;;;;;;205.77;106.03;;;;;;;-6.46;83.27;99513.90;2682147;87;21614;-91
2022/12/14 08:47:12;;;;;;;141.40;80.28;;;;;;;-6.32;82.50;99515.27;2672222;87;21063;-93
2022/12/14 08:51:14;;;;;;;127.90;67.22;;;;;;;-6.19;82.12;99515.38;2710096;86;21059;-93
2022/12/14 08:55:15;;;;;;;125.75;67.85;;;;;;;-6.15;81.82;99510.12;2690352;86;21746;-94
2022/12/14 08:59:16;;;;;;;123.50;72.95;;;;;;;-6.07;82.13;99527.63;2693834;87;21126;-92
2022/12/14 09:03:18;;;;;;;112.95;58.13;;;;;;;-5.95;82.13;99507.83;2678453;87;21685;-94
2022/12/14 09:07:19;;;;;;;112.12;62.25;;;;;;;-5.85;81.99;99499.83;2665433;88;21199;-94
2022/12/14 09:11:21;;;;;;;118.05;67.00;;;;;;;-5.74;81.94;99491.30;2717348;87;21629;-93
2022/12/14 09:15:22;;;;;;;112.77;61.60;;;;;;;-5.54;82.29;99469.16;2716938;86;21137;-93
2022/12/14 09:19:24;;;;;;;120.45;61.70;;;;;;;-5.39;82.10;99467.42;2712214;87;21582;-91
2022/12/14 09:23:28;;;;;;;107.27;57.67;;;;;;;-5.27;82.50;99464.08;2705961;87;21078;-93
2022/12/14 09:27:29;;;;;;;103.47;53.90;;;;;;;-5.08;82.30;99457.88;2717836;86;21117;-92
2022/12/14 09:31:31;;;;;;;97.40;54.67;;;;;;;-5.03;82.01;99446.47;2688090;87;21109;-94
2022/12/14 09:35:32;;;;;;;102.78;55.12;;;;;;;-4.91;82.59;99438.75;2684503;86;21066;-93
2022/12/14 09:39:34;;;;;;;113.75;57.23;;;;;;;-4.81;83.03;99429.39;2700724;86;21063;-93
2022/12/14 09:43:43;;;;;;;107.12;54.98;;;;;;;-4.58;81.42;99428.61;2716857;87;21094;-92
2022/12/14 09:47:56;;;;;;;98.42;50.90;;;;;;;-4.39;80.74;99424.97;2688333;84;21079;-95
2022/12/14 09:52:02;;;;;;;91.02;50.20;;;;;;;-4.30;80.05;99422.51;2706150;87;21082;-92
2022/12/14 09:56:07;;;;;;;84.42;47.95;;;;;;;-4.13;80.57;99416.71;2717169;87;21063;-93
2022/12/14 10:00:13;;;;;;;93.60;46.42;;;;;;;-3.93;79.49;99400.42;2717035;87;21038;-94
2022/12/14 10:04:58;;;;;;;97.67;51.73;;;;;;;-3.78;79.14;99402.05;2715457;86;21117;-94
2022/12/14 10:09:55;;;;;;;83.15;42.62;;;;;;;-3.69;78.06;99396.52;2691174;87;21563;-94
2022/12/14 10:14:28;;;;;;;89.95;48.17;;;;;;;-3.54;79.53;99385.98;2716426;86;21058;-93
2022/12/14 10:18:50;;;;;;;83.37;48.87;;;;;;;-3.39;78.72;99369.41;2718316;87;21065;-92
2022/12/14 10:22:53;;;;;;;90.12;48.95;;;;;;;-3.21;77.02;99369.13;2716184;87;21078;-95
2022/12/14 10:26:55;;;;;;;77.42;44.67;;;;;;;-2.97;77.84;99355.59;2718069;87;21011;-93
2022/12/14 10:30:59;;;;;;;91.78;45.17;;;;;;;-2.78;76.64;99346.55;2692328;87;21090;-93
2022/12/14 10:35:18;;;;;;;75.97;42.53;;;;;;;-2.68;76.58;99337.89;2716864;87;21089;-92
2022/12/14 10:39:24;;;;;;;79.70;47.25;;;;;;;-2.61;76.39;99338.05;2716268;87;21050;-94
2022/12/14 10:43:53;;;;;;;76.05;45.50;;;;;;;-2.44;75.76;99322.16;2705713;87;21086;-93
2022/12/14 10:48:31;;;;;;;74.35;44.35;;;;;;;-2.35;75.43;99317.00;2718203;87;21256;-96
2022/12/14 10:52:40;;;;;;;74.05;39.85;;;;;;;-2.23;75.33;99306.02;2710602;87;21039;-94
2022/12/14 10:56:43;;;;;;;83.15;44.08;;;;;;;-2.24;75.24;99297.81;2690887;86;21081;-93
2022/12/14 11:00:45;;;;;;;81.25;43.30;;;;;;;-2.08;74.53;99288.00;2683636;88;21055;-95
2022/12/14 11:04:54;;;;;;;64.25;35.30;;;;;;;-2.08;74.75;99287.53;2689770;88;21182;-92
2022/12/14 11:08:56;;;;;;;68.45;37.42;;;;;;;-2.07;74.60;99272.75;2701339;88;21087;-94
2022/12/14 11:13:16;;;;;;;76.53;41.15;;;;;;;-1.94;74.14;99256.94;2699964;88;21079;-95
2022/12/14 11:17:42;;;;;;;62.83;34.80;;;;;;;-1.94;74.14;99256.94;2671879;89;21977;-95
2022/12/14 11:21:45;;;;;;;67.95;37.05;;;;;;;-1.95;74.06;99244.83;2655324;88;21098;-94
2022/12/14 11:25:52;;;;;;;48.13;28.80;;;;;;;-1.83;73.05;99237.33;2656122;88;21491;-93
2022/12/14 11:29:53;;;;;;;51.25;30.90;;;;;;;-1.69;73.32;99218.41;2667235;87;21079;-94
2022/12/14 11:33:57;;;;;;;44.67;27.67;;;;;;;-1.46;73.45;99202.95;2657145;88;21462;-95
2022/12/14 11:37:59;;;;;;;60.48;34.53;;;;;;;-1.46;73.45;99202.95;2703051;88;21650;-95
2022/12/14 11:42:03;;;;;;;65.40;37.50;;;;;;;-1.44;73.49;99208.93;2696369;88;21028;-94
2022/12/14 11:46:05;;;;;;;60.33;35.08;;;;;;;-1.55;73.43;99211.24;2670595;88;21028;-95
2022/12/14 11:50:12;;;;;;;47.05;33.75;;;;;;;-1.49;73.30;99192.20;2678950;88;21095;-96
2022/12/14 11:54:15;;;;;;;65.60;35.73;;;;;;;-1.42;72.79;99186.22;2698102;87;21039;-93
2022/12/14 11:58:30;;;;;;;63.13;38.20;;;;;;;-1.42;72.79;99186.22;2701090;88;21133;-94
2022/12/14 12:02:43;;;;;;;69.75;34.80;;;;;;;-1.46;72.97;99180.78;2696434;88;21047;-93
2022/12/14 12:06:45;;;;;;;69.90;35.23;;;;;;;-1.46;73.48;99153.39;2701143;88;21039;-93
2022/12/14 12:10:49;;;;;;;65.35;40.03;;;;;;;-1.20;73.82;99161.20;2672841;88;21087;-94
2022/12/14 12:14:57;;;;;;;73.15;37.93;;;;;;;-1.43;72.85;99144.09;2664253;89;21084;-96
2022/12/14 12:19:22;;;;;;;76.92;45.10;;;;;;;-1.43;72.85;99144.09;2694883;84;21062;-95
2022/12/14 12:23:44;;;;;;;90.07;48.52;;;;;;;-1.56;73.37;99140.44;2702331;88;21078;-94
2022/12/14 12:27:51;;;;;;;73.85;48.20;;;;;;;-1.64;74.55;99133.00;2684928;88;21393;-93
2022/12/14 12:32:37;;;;;;;85.67;47.43;;;;;;;-1.62;74.34;99122.85;2699657;88;21082;-95
2022/12/14 12:36:40;;;;;;;81.80;47.05;;;;;;;-1.66;74.45;99119.19;2690039;88;21070;-94
2022/12/14 12:41:02;;;;;;;81.47;45.55;;;;;;;-1.73;73.90;99121.26;2696433;88;21728;-93
2022/12/14 12:45:26;;;;;;;76.90;50.52;;;;;;;-1.80;74.28;99126.38;2670861;88;21078;-95
2022/12/14 12:49:28;;;;;;;80.42;50.05;;;;;;;-2.01;75.86;99111.73;2637888;89;21079;-92
2022/12/14 12:53:34;;;;;;;85.83;49.40;;;;;;;-2.01;75.86;99111.73;2662498;87;21759;-93
2022/12/14 12:57:40;;;;;;;86.57;51.15;;;;;;;-2.06;75.82;99120.69;2704327;87;21110;-95
2022/12/14 13:01:44;;;;;;;;;;;;;;;-2.09;76.83;99110.41;2710505;87;21111;-94
2022/12/14 13:05:47;;;;;;;76.35;50.60;;;;;;;-2.19;75.93;99109.53;2710581;87;20145;-92
2022/12/14 13:10:00;;;;;;;81.02;51.45;;;;;;;-2.14;76.59;99103.28;2690850;87;21131;-93
2022/12/14 13:14:29;;;;;;;113.77;54.73;;;;;;;-2.18;76.58;99116.44;2707508;85;21104;-92
2022/12/14 13:18:38;;;;;;;112.52;55.95;;;;;;;-2.13;77.19;99108.87;2694909;87;21089;-93
2022/12/14 13:22:40;;;;;;;122.28;54.18;;;;;;;-2.09;77.75;99093.47;2709682;87;21589;-95
2022/12/14 13:27:03;;;;;;;117.70;59.95;;;;;;;-2.04;77.88;99092.34;2708534;87;21637;-94
2022/12/14 13:31:22;;;;;;;91.87;51.42;;;;;;;-2.01;78.06;99091.32;2707929;87;21006;-93
2022/12/14 13:35:58;;;;;;;89.58;49.75;;;;;;;-1.94;78.18;99094.47;2704076;87;21086;-95
2022/12/14 13:40:25;;;;;;;84.05;48.30;;;;;;;-1.87;77.53;99085.42;2708911;87;21078;-92
2022/12/14 13:44:59;;;;;;;75.22;45.43;;;;;;;-1.87;76.82;99087.58;2706649;87;21224;-92
2022/12/14 13:49:07;;;;;;;75.47;45.67;;;;;;;-1.89;77.24;99081.61;2685131;87;21570;-95
2022/12/14 13:53:16;;;;;;;86.20;46.05;;;;;;;-1.86;77.50;99055.86;2711107;87;21046;-95
2022/12/14 13:57:22;;;;;;;77.50;48.00;;;;;;;-1.86;77.50;99055.86;2714159;87;21055;-95
2022/12/14 14:01:49;;;;;;;78.65;43.60;;;;;;;-1.90;77.73;99058.20;2714291;87;21077;-95
2022/12/14 14:05:56;;;;;;;71.60;41.40;;;;;;;-1.89;77.69;99051.62;2694893;87;21115;-93
2022/12/14 14:10:03;;;;;;;78.78;46.95;;;;;;;-1.97;78.16;99039.42;2726272;86;21042;-94
2022/12/14 14:14:48;;;;;;;68.15;42.83;;;;;;;-1.97;78.24;99038.12;2697296;87;21060;-92
2022/12/14 14:27:36;;;;;;;76.22;41.63;;;;;;;-1.75;79.04;99037.06;2710721;87;21163;-62
2022/12/14 14:32:02;;;;;;;60.70;41.33;;;;;;;-1.75;78.55;99024.84;2681844;87;21083;-63
2022/12/14 14:36:11;;;;;;;69.27;38.00;;;;;;;-1.70;77.79;99023.31;2677282;87;21135;-65
2022/12/14 14:40:18;;;;;;;71.77;41.30;;;;;;;-1.65;77.95;99027.83;2651914;88;21078;-65
2022/12/14 14:44:37;;;;;;;69.22;41.58;;;;;;;-1.82;77.41;99001.77;2692382;87;21012;-63
2022/12/14 14:49:03;;;;;;;65.70;43.73;;;;;;;-1.59;78.19;99022.28;2714345;87;21056;-64
2022/12/14 14:53:30;;;;;;;75.30;45.10;;;;;;;-1.52;78.63;99033.72;2702878;87;21335;-66
2022/12/14 14:57:49;;;;;;;65.10;39.48;;;;;;;-1.51;78.67;99023.67;2686839;87;21091;-65
2022/12/14 15:01:59;;;;;;;81.15;42.17;;;;;;;-1.50;78.68;99014.44;2709583;85;21034;-65
2022/12/14 15:06:01;;;;;;;86.85;43.28;;;;;;;-1.52;78.64;99005.03;2763466;83;21027;-62
2022/12/14 15:10:24;;;;;;;75.83;43.83;;;;;;;-1.48;78.92;99001.33;2750662;86;21038;-61
2022/12/14 15:14:38;;;;;;;86.78;50.38;;;;;;;-1.49;78.70;98984.83;2774954;86;21023;-62
2022/12/14 15:18:39;;;;;;;93.07;56.37;;;;;;;-1.40;79.07;98976.14;2774221;86;21056;-62
2022/12/14 15:22:42;;;;;;;95.80;48.70;;;;;;;-1.40;79.07;98976.14;2775037;84;21007;-62
2022/12/14 15:26:44;;;;;;;93.65;52.45;;;;;;;-1.35;79.03;98985.87;2751864;85;21079;-64
2022/12/14 15:30:47;;;;;;;77.87;45.08;;;;;;;-1.34;78.83;98983.19;2698120;87;21023;-61
2022/12/14 15:34:59;;;;;;;80.28;48.92;;;;;;;-1.33;78.78;98960.53;2772596;86;21059;-63
2022/12/14 15:39:01;;;;;;;76.95;43.10;;;;;;;-1.33;78.66;98965.75;2769983;86;21074;-62
2022/12/14 15:43:19;;;;;;;68.92;39.03;;;;;;;-1.34;78.48;98963.63;2772985;85;21023;-62
2022/12/14 15:47:29;;;;;;;73.97;40.25;;;;;;;-1.26;78.81;98967.13;2772300;86;20953;-61
2022/12/14 15:51:35;;;;;;;68.02;41.13;;;;;;;-1.26;78.81;98967.13;2773862;85;21008;-62
2022/12/14 15:55:40;;;;;;;54.27;32.13;;;;;;;-1.26;78.56;98946.70;2756125;86;21034;-63
2022/12/14 15:59:44;;;;;;;70.78;43.38;;;;;;;-1.20;78.96;98946.35;2685604;87;21274;-64
2022/12/14 16:03:50;;;;;;;70.90;43.42;;;;;;;-1.18;78.66;98941.89;2775266;86;21098;-63
2022/12/14 16:07:55;;;;;;;76.87;48.17;;;;;;;-1.15;78.61;98946.97;2775412;86;21070;-65
2022/12/14 16:12:29;;;;;;;66.60;38.92;;;;;;;-1.09;78.62;98947.06;2773211;86;21008;-62
2022/12/14 16:16:30;;;;;;;70.17;37.93;;;;;;;-1.10;78.33;98944.94;2769939;84;21070;-63
2022/12/14 16:20:59;;;;;;;126.47;68.37;;;;;;;-1.06;78.32;98935.17;2774109;86;21061;-65
2022/12/14 16:25:21;;;;;;;171.85;103.35;;;;;;;-0.99;78.67;98933.04;2699334;87;21048;-62
2022/12/14 16:29:29;;;;;;;403.85;226.35;;;;;;;-0.98;78.17;98931.66;2645765;89;21118;-64
2022/12/14 16:33:34;;;;;;;130.93;70.65;;;;;;;-0.95;78.11;98941.93;2624910;89;21017;-64
2022/12/14 16:37:36;;;;;;;162.25;83.37;;;;;;;-0.96;78.05;98932.41;2571796;92;21102;-61
2022/12/14 16:41:43;;;;;;;140.75;75.75;;;;;;;-1.01;77.84;98936.58;2590257;91;21116;-65
2022/12/14 16:45:48;;;;;;;;;;;;;;;-1.02;77.94;98937.51;2613054;91;20991;-67
2022/12/14 16:49:56;;;;;;;124.15;69.07;;;;;;;-1.00;77.64;98929.61;2615053;91;21055;-65
2022/12/14 16:54:04;;;;;;;156.10;83.05;;;;;;;-1.04;77.88;98930.23;2589312;91;21122;-63
2022/12/14 16:58:11;;;;;;;91.82;47.80;;;;;;;-1.07;77.93;98923.88;2623477;90;21019;-62
2022/12/14 17:02:58;;;;;;;91.53;53.75;;;;;;;-1.05;78.48;98927.24;2602964;90;21067;-63
2022/12/14 17:07:00;;;;;;;100.20;54.95;;;;;;;-1.03;78.41;98925.38;2633363;89;20958;-67
2022/12/14 17:11:16;;;;;;;131.75;67.35;;;;;;;-0.99;78.61;98919.54;2727732;86;21034;-62
2022/12/14 17:15:21;;;;;;;126.38;68.83;;;;;;;-1.03;78.20;98921.95;2706200;86;21070;-61
2022/12/14 17:19:38;;;;;;;127.17;65.70;;;;;;;-1.04;78.14;98922.40;2726519;86;20999;-62
2022/12/14 17:23:42;;;;;;;90.12;52.70;;;;;;;-1.06;77.66;98913.81;2671473;88;21122;-62
2022/12/14 17:27:43;;;;;;;94.07;53.28;;;;;;;-1.15;77.91;98897.38;2704523;87;20980;-62
2022/12/14 17:31:46;;;;;;;82.08;49.27;;;;;;;-1.24;78.91;98897.88;2681219;88;21425;-61
2022/12/14 17:35:47;;;;;;;93.22;51.68;;;;;;;-1.26;79.12;98892.76;2685423;88;21040;-62
2022/12/14 17:39:49;;;;;;;105.25;54.83;;;;;;;-1.37;79.26;98895.10;2660436;87;21036;-62
2022/12/14 17:43:55;;;;;;;88.70;48.33;;;;;;;-1.38;80.03;98902.08;2769389;86;21045;-63
2022/12/14 17:47:57;;;;;;;;;;;;;;;-1.38;80.46;98900.77;2781542;84;21019;-63
2022/12/14 17:52:04;;;;;;;87.50;48.85;;;;;;;-1.35;80.22;98901.94;2803948;84;20093;-61
2022/12/14 17:56:06;;;;;;;90.00;54.85;;;;;;;-1.40;80.83;98895.28;2773085;86;21099;-61
2022/12/14 18:04:47;;;;;;;97.00;56.55;;;;;;;-1.36;81.44;98897.64;2772753;86;21031;-63
2022/12/14 18:08:49;;;;;;;95.60;56.58;;;;;;;-1.37;81.35;98909.45;2775034;86;21044;-62
2022/12/14 18:12:51;;;;;;;85.47;48.73;;;;;;;-1.50;82.65;98904.06;2775198;86;21059;-64
2022/12/14 18:16:54;;;;;;;94.13;47.48;;;;;;;-1.62;84.41;98902.48;2772614;86;21043;-63
2022/12/14 18:21:00;;;;;;;110.52;58.45;;;;;;;-1.79;86.33;98889.06;2770152;86;21067;-65
2022/12/14 18:25:03;;;;;;;103.25;56.60;;;;;;;-1.74;86.68;98892.26;2775492;86;21051;-61
2022/12/14 18:29:04;;;;;;;111.10;59.20;;;;;;;-1.75;87.42;98896.27;2748640;85;21031;-60
2022/12/14 18:33:10;;;;;;;114.00;66.87;;;;;;;-1.79;88.23;98876.02;2765199;85;21044;-61
2022/12/14 18:37:11;;;;;;;113.40;60.65;;;;;;;-1.65;87.67;98887.49;2761675;86;21047;-59
2022/12/14 18:41:20;;;;;;;109.03;61.08;;;;;;;-1.74;89.36;98888.83;2763240;86;21034;-61
2022/12/14 18:45:26;;;;;;;111.65;61.37;;;;;;;-1.72;89.01;98898.23;2740183;86;20995;-61
2022/12/14 18:49:27;;;;;;;101.62;65.37;;;;;;;-1.79;89.44;98901.23;2757059;86;21078;-61
2022/12/14 18:53:29;;;;;;;110.12;64.00;;;;;;;-1.70;89.11;98900.77;2686076;86;21043;-61
2022/12/14 18:57:30;;;;;;;98.22;61.50;;;;;;;-1.67;88.69;98900.59;2685373;87;21054;-66
2022/12/14 19:01:41;;;;;;;109.65;66.12;;;;;;;-1.67;88.69;98900.59;2758973;86;21010;-62
2022/12/14 19:05:44;;;;;;;123.35;71.02;;;;;;;-1.59;88.70;98899.71;2760854;86;20991;-63
2022/12/14 19:09:45;;;;;;;163.97;94.17;;;;;;;-1.66;89.17;98888.41;2762881;86;21062;-62
2022/12/14 19:13:51;;;;;;;126.40;70.45;;;;;;;-1.87;91.81;98906.41;2761971;86;21000;-65
2022/12/14 19:17:53;;;;;;;134.80;75.12;;;;;;;-1.87;91.81;98906.41;2776958;85;21051;-61
2022/12/14 19:21:55;;;;;;;117.33;64.62;;;;;;;-1.72;90.86;98903.92;2735238;86;21030;-62
2022/12/14 19:26:00;;;;;;;113.30;63.73;;;;;;;-1.60;90.19;98896.72;2731715;86;21277;-60
2022/12/14 19:30:00;;;;;;;101.35;58.55;;;;;;;-1.53;89.46;98886.80;2757790;85;20987;-63
2022/12/14 19:34:02;;;;;;;112.35;63.60;;;;;;;-1.56;88.85;98881.77;2775400;86;21007;-62
2022/12/14 19:38:18;;;;;;;105.00;61.00;;;;;;;-1.49;88.54;98900.05;2767028;86;21066;-64
2022/12/14 19:42:20;;;;;;;117.70;65.78;;;;;;;-1.49;88.50;98891.41;2752054;86;21082;-61
2022/12/14 19:46:22;;;;;;;108.55;62.05;;;;;;;-1.53;88.61;98895.11;2775023;86;21077;-62